sensor_id;sensor_type;location;lat;lon;timestamp;temperature;humidity
28484;DHT22;15704;48.834;8.736;2022-12-18T00:01:21;-6.50;99.90
28484;DHT22;15704;48.834;8.736;2022-12-18T00:03:48;-6.50;99.90
28484;DHT22;15704;48.834;8.736;2022-12-18T00:06:18;-6.50;99.90
28484;DHT22;15704;48.834;8.736;2022-12-18T00:08:46;-6.50;99.90
28484;DHT22;15704;48.834;8.736;2022-12-18T00:11:18;-6.40;99.90
28484;DHT22;15704;48.834;8.736;2022-12-18T00:13:45;-6.40;99.90
28484;DHT22;15704;48.834;8.736;2022-12-18T00:16:15;-6.40;99.90
28484;DHT22;15704;48.834;8.736;2022-12-18T00:18:42;-6.50;99.90
28484;DHT22;15704;48.834;8.736;2022-12-18T00:21:11;-6.40;99.90
28484;DHT22;15704;48.834;8.736;2022-12-18T00:23:39;-6.40;99.90
28484;DHT22;15704;48.834;8.736;2022-12-18T00:26:13;-6.40;99.90
28484;DHT22;15704;48.834;8.736;2022-12-18T00:28:42;-6.40;99.90
28484;DHT22;15704;48.834;8.736;2022-12-18T00:31:15;-6.40;99.90
28484;DHT22;15704;48.834;8.736;2022-12-18T00:33:42;-6.50;99.90
28484;DHT22;15704;48.834;8.736;2022-12-18T00:38:42;-6.50;99.90
28484;DHT22;15704;48.834;8.736;2022-12-18T00:41:10;-6.40;99.90
28484;DHT22;15704;48.834;8.736;2022-12-18T00:43:38;-6.50;99.90
28484;DHT22;15704;48.834;8.736;2022-12-18T00:46:06;-6.50;99.90
28484;DHT22;15704;48.834;8.736;2022-12-18T00:48:32;-6.50;99.90
28484;DHT22;15704;48.834;8.736;2022-12-18T00:50:59;-6.60;99.90
28484;DHT22;15704;48.834;8.736;2022-12-18T00:53:26;-6.60;99.90
28484;DHT22;15704;48.834;8.736;2022-12-18T00:55:52;-6.60;99.90
28484;DHT22;15704;48.834;8.736;2022-12-18T00:58:19;-6.60;99.90
28484;DHT22;15704;48.834;8.736;2022-12-18T01:00:46;-6.60;99.90
28484;DHT22;15704;48.834;8.736;2022-12-18T01:03:14;-6.70;99.90
28484;DHT22;15704;48.834;8.736;2022-12-18T01:05:41;-6.70;99.90
28484;DHT22;15704;48.834;8.736;2022-12-18T01:08:09;-6.70;99.90
28484;DHT22;15704;48.834;8.736;2022-12-18T01:10:35;-6.70;99.90
28484;DHT22;15704;48.834;8.736;2022-12-18T01:13:02;-6.70;99.90
28484;DHT22;15704;48.834;8.736;2022-12-18T01:15:29;-6.70;99.90
28484;DHT22;15704;48.834;8.736;2022-12-18T01:17:55;-6.70;99.90
28484;DHT22;15704;48.834;8.736;2022-12-18T01:20:22;-6.70;99.90
28484;DHT22;15704;48.834;8.736;2022-12-18T01:22:49;-6.70;99.90
28484;DHT22;15704;48.834;8.736;2022-12-18T01:25:15;-6.70;99.90
28484;DHT22;15704;48.834;8.736;2022-12-18T01:27:42;-6.70;99.90
28484;DHT22;15704;48.834;8.736;2022-12-18T01:30:09;-6.70;99.90
28484;DHT22;15704;48.834;8.736;2022-12-18T01:32:36;-6.70;99.90
28484;DHT22;15704;48.834;8.736;2022-12-18T01:35:03;-6.70;99.90
28484;DHT22;15704;48.834;8.736;2022-12-18T01:37:30;-6.70;99.90
28484;DHT22;15704;48.834;8.736;2022-12-18T01:39:56;-6.70;99.90
28484;DHT22;15704;48.834;8.736;2022-12-18T01:42:23;-6.60;99.90
28484;DHT22;15704;48.834;8.736;2022-12-18T01:47:35;-6.60;99.90
28484;DHT22;15704;48.834;8.736;2022-12-18T01:50:13;-6.60;99.90
28484;DHT22;15704;48.834;8.736;2022-12-18T01:52:47;-6.60;99.90
28484;DHT22;15704;48.834;8.736;2022-12-18T01:55:18;-6.60;99.90
28484;DHT22;15704;48.834;8.736;2022-12-18T01:57:46;-6.50;99.90
28484;DHT22;15704;48.834;8.736;2022-12-18T02:00:18;-6.50;99.90
28484;DHT22;15704;48.834;8.736;2022-12-18T02:02:48;-6.50;99.90
28484;DHT22;15704;48.834;8.736;2022-12-18T02:05:40;-6.50;99.90
28484;DHT22;15704;48.834;8.736;2022-12-18T02:10:57;-6.60;99.90
28484;DHT22;15704;48.834;8.736;2022-12-18T02:22:34;-6.60;99.90
28484;DHT22;15704;48.834;8.736;2022-12-18T02:25:17;-6.60;99.90
28484;DHT22;15704;48.834;8.736;2022-12-18T02:27:49;-6.60;99.90
28484;DHT22;15704;48.834;8.736;2022-12-18T02:30:17;-6.70;99.90
28484;DHT22;15704;48.834;8.736;2022-12-18T02:32:52;-6.70;99.90
28484;DHT22;15704;48.834;8.736;2022-12-18T02:35:27;-6.70;99.90
28484;DHT22;15704;48.834;8.736;2022-12-18T02:37:56;-6.60;99.90
28484;DHT22;15704;48.834;8.736;2022-12-18T02:40:26;-6.70;99.90
28484;DHT22;15704;48.834;8.736;2022-12-18T02:42:54;-6.60;99.90
28484;DHT22;15704;48.834;8.736;2022-12-18T02:45:20;-6.60;99.90
28484;DHT22;15704;48.834;8.736;2022-12-18T02:47:49;-6.60;99.90
28484;DHT22;15704;48.834;8.736;2022-12-18T02:50:31;-6.60;99.90
28484;DHT22;15704;48.834;8.736;2022-12-18T02:58:14;-6.60;99.90
28484;DHT22;15704;48.834;8.736;2022-12-18T03:00:53;-6.60;99.90
28484;DHT22;15704;48.834;8.736;2022-12-18T03:03:30;-6.60;99.90
28484;DHT22;15704;48.834;8.736;2022-12-18T03:06:06;-6.70;99.90
28484;DHT22;15704;48.834;8.736;2022-12-18T03:08:42;-6.60;99.90
28484;DHT22;15704;48.834;8.736;2022-12-18T03:11:11;-6.60;99.90
28484;DHT22;15704;48.834;8.736;2022-12-18T03:13:46;-6.60;99.90
28484;DHT22;15704;48.834;8.736;2022-12-18T03:16:27;-6.70;99.90
28484;DHT22;15704;48.834;8.736;2022-12-18T03:19:14;-6.70;99.90
28484;DHT22;15704;48.834;8.736;2022-12-18T03:21:49;-6.70;99.90
28484;DHT22;15704;48.834;8.736;2022-12-18T03:24:17;-6.80;99.90
28484;DHT22;15704;48.834;8.736;2022-12-18T03:26:49;-6.70;99.90
28484;DHT22;15704;48.834;8.736;2022-12-18T03:29:21;-6.80;99.90
28484;DHT22;15704;48.834;8.736;2022-12-18T03:31:52;-6.90;99.90
28484;DHT22;15704;48.834;8.736;2022-12-18T03:34:24;-6.90;99.90
28484;DHT22;15704;48.834;8.736;2022-12-18T03:36:52;-7.00;99.90
28484;DHT22;15704;48.834;8.736;2022-12-18T03:39:19;-7.00;99.90
28484;DHT22;15704;48.834;8.736;2022-12-18T03:41:58;-7.10;99.90
28484;DHT22;15704;48.834;8.736;2022-12-18T03:44:29;-7.10;99.90
28484;DHT22;15704;48.834;8.736;2022-12-18T03:49:56;-7.30;99.90
28484;DHT22;15704;48.834;8.736;2022-12-18T03:52:32;-7.40;99.90
28484;DHT22;15704;48.834;8.736;2022-12-18T03:55:01;-7.40;99.90
28484;DHT22;15704;48.834;8.736;2022-12-18T03:57:31;-7.40;99.90
28484;DHT22;15704;48.834;8.736;2022-12-18T04:00:13;-7.40;99.90
28484;DHT22;15704;48.834;8.736;2022-12-18T04:02:55;-7.40;99.90
28484;DHT22;15704;48.834;8.736;2022-12-18T04:05:23;-7.40;99.90
28484;DHT22;15704;48.834;8.736;2022-12-18T04:07:51;-7.40;99.90
28484;DHT22;15704;48.834;8.736;2022-12-18T04:10:20;-7.30;99.90
28484;DHT22;15704;48.834;8.736;2022-12-18T04:12:47;-7.30;99.90
28484;DHT22;15704;48.834;8.736;2022-12-18T04:15:14;-7.30;99.90
28484;DHT22;15704;48.834;8.736;2022-12-18T04:17:47;-7.30;99.90
28484;DHT22;15704;48.834;8.736;2022-12-18T04:20:15;-7.20;99.90
28484;DHT22;15704;48.834;8.736;2022-12-18T04:22:42;-7.20;99.90
28484;DHT22;15704;48.834;8.736;2022-12-18T04:25:09;-7.20;99.90
28484;DHT22;15704;48.834;8.736;2022-12-18T04:27:36;-7.20;99.90
28484;DHT22;15704;48.834;8.736;2022-12-18T04:30:03;-7.20;99.90
28484;DHT22;15704;48.834;8.736;2022-12-18T04:32:30;-7.20;99.90
28484;DHT22;15704;48.834;8.736;2022-12-18T04:34:57;-7.20;99.90
28484;DHT22;15704;48.834;8.736;2022-12-18T04:37:24;-7.20;99.90
28484;DHT22;15704;48.834;8.736;2022-12-18T04:39:51;-7.30;99.90
28484;DHT22;15704;48.834;8.736;2022-12-18T04:42:17;-7.30;99.90
28484;DHT22;15704;48.834;8.736;2022-12-18T04:44:44;-7.30;99.90
28484;DHT22;15704;48.834;8.736;2022-12-18T04:47:11;-7.40;99.90
28484;DHT22;15704;48.834;8.736;2022-12-18T04:49:38;-7.40;99.90
28484;DHT22;15704;48.834;8.736;2022-12-18T04:52:04;-7.40;99.90
28484;DHT22;15704;48.834;8.736;2022-12-18T04:54:31;-7.50;99.90
28484;DHT22;15704;48.834;8.736;2022-12-18T04:56:58;-7.50;99.90
28484;DHT22;15704;48.834;8.736;2022-12-18T04:59:25;-7.60;99.90
28484;DHT22;15704;48.834;8.736;2022-12-18T05:01:52;-7.60;99.90
28484;DHT22;15704;48.834;8.736;2022-12-18T05:04:19;-7.60;99.90
28484;DHT22;15704;48.834;8.736;2022-12-18T05:06:45;-7.60;99.90
28484;DHT22;15704;48.834;8.736;2022-12-18T05:09:13;-7.60;99.90
28484;DHT22;15704;48.834;8.736;2022-12-18T05:11:40;-7.60;99.90
28484;DHT22;15704;48.834;8.736;2022-12-18T05:14:06;-7.60;99.90
28484;DHT22;15704;48.834;8.736;2022-12-18T05:16:33;-7.60;99.90
28484;DHT22;15704;48.834;8.736;2022-12-18T05:19:00;-7.60;99.90
28484;DHT22;15704;48.834;8.736;2022-12-18T05:21:27;-7.60;99.90
28484;DHT22;15704;48.834;8.736;2022-12-18T05:23:54;-7.70;99.90
28484;DHT22;15704;48.834;8.736;2022-12-18T05:26:20;-7.70;99.90
28484;DHT22;15704;48.834;8.736;2022-12-18T05:28:47;-7.70;99.90
28484;DHT22;15704;48.834;8.736;2022-12-18T05:31:14;-7.70;99.90
28484;DHT22;15704;48.834;8.736;2022-12-18T05:33:41;-7.70;99.90
28484;DHT22;15704;48.834;8.736;2022-12-18T05:36:10;-7.70;99.90
28484;DHT22;15704;48.834;8.736;2022-12-18T05:38:38;-7.80;99.90
28484;DHT22;15704;48.834;8.736;2022-12-18T05:41:06;-7.80;99.90
28484;DHT22;15704;48.834;8.736;2022-12-18T05:43:35;-7.80;99.90
28484;DHT22;15704;48.834;8.736;2022-12-18T05:46:04;-7.80;99.90
28484;DHT22;15704;48.834;8.736;2022-12-18T05:48:31;-7.80;99.90
28484;DHT22;15704;48.834;8.736;2022-12-18T05:51:07;-7.80;99.90
28484;DHT22;15704;48.834;8.736;2022-12-18T05:53:36;-7.80;99.90
28484;DHT22;15704;48.834;8.736;2022-12-18T05:56:05;-7.80;99.90
28484;DHT22;15704;48.834;8.736;2022-12-18T05:58:33;-7.80;99.90
28484;DHT22;15704;48.834;8.736;2022-12-18T06:01:10;-7.80;99.90
28484;DHT22;15704;48.834;8.736;2022-12-18T06:03:37;-7.80;99.90
28484;DHT22;15704;48.834;8.736;2022-12-18T06:06:16;-7.80;99.90
28484;DHT22;15704;48.834;8.736;2022-12-18T06:08:43;-7.80;99.90
28484;DHT22;15704;48.834;8.736;2022-12-18T06:11:13;-7.80;99.90
28484;DHT22;15704;48.834;8.736;2022-12-18T06:13:39;-7.80;99.90
28484;DHT22;15704;48.834;8.736;2022-12-18T06:16:07;-7.80;99.90
28484;DHT22;15704;48.834;8.736;2022-12-18T06:18:34;-7.80;99.90
28484;DHT22;15704;48.834;8.736;2022-12-18T06:21:01;-7.90;99.90
28484;DHT22;15704;48.834;8.736;2022-12-18T06:23:28;-7.90;99.90
28484;DHT22;15704;48.834;8.736;2022-12-18T06:25:55;-7.90;99.90
28484;DHT22;15704;48.834;8.736;2022-12-18T06:28:21;-8.00;99.90
28484;DHT22;15704;48.834;8.736;2022-12-18T06:30:49;-8.00;99.90
28484;DHT22;15704;48.834;8.736;2022-12-18T06:33:16;-8.00;99.90
28484;DHT22;15704;48.834;8.736;2022-12-18T06:35:43;-8.10;99.90
28484;DHT22;15704;48.834;8.736;2022-12-18T06:38:09;-8.10;99.90
28484;DHT22;15704;48.834;8.736;2022-12-18T06:40:37;-8.10;99.90
28484;DHT22;15704;48.834;8.736;2022-12-18T06:43:06;-8.10;99.90
28484;DHT22;15704;48.834;8.736;2022-12-18T06:45:32;-8.00;99.90
28484;DHT22;15704;48.834;8.736;2022-12-18T06:48:00;-8.10;99.90
28484;DHT22;15704;48.834;8.736;2022-12-18T06:50:27;-8.00;99.90
28484;DHT22;15704;48.834;8.736;2022-12-18T06:52:54;-8.00;99.90
28484;DHT22;15704;48.834;8.736;2022-12-18T06:55:22;-8.00;99.90
28484;DHT22;15704;48.834;8.736;2022-12-18T06:57:48;-8.00;99.90
28484;DHT22;15704;48.834;8.736;2022-12-18T07:00:15;-8.00;99.90
28484;DHT22;15704;48.834;8.736;2022-12-18T07:02:42;-8.00;99.90
28484;DHT22;15704;48.834;8.736;2022-12-18T07:05:09;-7.90;99.90
28484;DHT22;15704;48.834;8.736;2022-12-18T07:07:36;-7.90;99.90
28484;DHT22;15704;48.834;8.736;2022-12-18T07:10:03;-7.80;99.90
28484;DHT22;15704;48.834;8.736;2022-12-18T07:12:30;-7.80;99.90
28484;DHT22;15704;48.834;8.736;2022-12-18T07:14:57;-7.80;99.90
28484;DHT22;15704;48.834;8.736;2022-12-18T07:17:24;-7.70;99.90
28484;DHT22;15704;48.834;8.736;2022-12-18T07:19:50;-7.70;99.90
28484;DHT22;15704;48.834;8.736;2022-12-18T07:22:17;-7.60;99.90
28484;DHT22;15704;48.834;8.736;2022-12-18T07:24:44;-7.60;99.90
28484;DHT22;15704;48.834;8.736;2022-12-18T07:27:11;-7.50;99.90
28484;DHT22;15704;48.834;8.736;2022-12-18T07:29:37;-7.50;99.90
28484;DHT22;15704;48.834;8.736;2022-12-18T07:32:05;-7.40;99.90
28484;DHT22;15704;48.834;8.736;2022-12-18T07:34:32;-7.40;99.90
28484;DHT22;15704;48.834;8.736;2022-12-18T07:36:59;-7.40;99.90
28484;DHT22;15704;48.834;8.736;2022-12-18T07:39:25;-7.30;99.90
28484;DHT22;15704;48.834;8.736;2022-12-18T07:41:52;-7.30;99.90
28484;DHT22;15704;48.834;8.736;2022-12-18T07:44:40;-7.20;99.90
28484;DHT22;15704;48.834;8.736;2022-12-18T07:47:07;-7.10;99.90
28484;DHT22;15704;48.834;8.736;2022-12-18T07:49:37;-7.10;99.90
28484;DHT22;15704;48.834;8.736;2022-12-18T07:52:04;-7.00;99.90
28484;DHT22;15704;48.834;8.736;2022-12-18T07:54:31;-6.90;99.90
28484;DHT22;15704;48.834;8.736;2022-12-18T07:56:58;-6.90;99.90
28484;DHT22;15704;48.834;8.736;2022-12-18T07:59:25;-6.70;99.90
28484;DHT22;15704;48.834;8.736;2022-12-18T08:01:52;-6.70;99.90
28484;DHT22;15704;48.834;8.736;2022-12-18T08:04:19;-6.70;99.90
28484;DHT22;15704;48.834;8.736;2022-12-18T08:06:46;-6.60;99.90
28484;DHT22;15704;48.834;8.736;2022-12-18T08:09:14;-6.50;99.90
28484;DHT22;15704;48.834;8.736;2022-12-18T08:11:40;-6.50;99.90
28484;DHT22;15704;48.834;8.736;2022-12-18T08:14:07;-6.40;99.90
28484;DHT22;15704;48.834;8.736;2022-12-18T08:16:34;-6.40;99.90
28484;DHT22;15704;48.834;8.736;2022-12-18T08:19:01;-6.30;99.90
28484;DHT22;15704;48.834;8.736;2022-12-18T08:21:30;-6.30;99.90
28484;DHT22;15704;48.834;8.736;2022-12-18T08:24:00;-6.20;99.90
28484;DHT22;15704;48.834;8.736;2022-12-18T08:26:29;-6.10;99.90
28484;DHT22;15704;48.834;8.736;2022-12-18T08:28:58;-6.10;99.90
28484;DHT22;15704;48.834;8.736;2022-12-18T08:31:26;-6.00;99.90
28484;DHT22;15704;48.834;8.736;2022-12-18T08:33:55;-5.90;99.90
28484;DHT22;15704;48.834;8.736;2022-12-18T08:36:22;-5.80;99.90
28484;DHT22;15704;48.834;8.736;2022-12-18T08:38:51;-5.80;99.90
28484;DHT22;15704;48.834;8.736;2022-12-18T08:41:18;-5.70;99.90
28484;DHT22;15704;48.834;8.736;2022-12-18T08:43:45;-5.60;99.90
28484;DHT22;15704;48.834;8.736;2022-12-18T08:46:38;-5.50;99.90
28484;DHT22;15704;48.834;8.736;2022-12-18T08:49:07;-5.50;99.90
28484;DHT22;15704;48.834;8.736;2022-12-18T08:51:34;-5.30;99.90
28484;DHT22;15704;48.834;8.736;2022-12-18T08:54:01;-5.30;99.90
28484;DHT22;15704;48.834;8.736;2022-12-18T08:56:29;-5.30;99.90
28484;DHT22;15704;48.834;8.736;2022-12-18T08:58:56;-5.10;99.90
28484;DHT22;15704;48.834;8.736;2022-12-18T09:01:23;-5.10;99.90
28484;DHT22;15704;48.834;8.736;2022-12-18T09:03:50;-5.00;99.90
28484;DHT22;15704;48.834;8.736;2022-12-18T09:06:20;-4.90;99.90
28484;DHT22;15704;48.834;8.736;2022-12-18T09:08:47;-4.90;99.90
28484;DHT22;15704;48.834;8.736;2022-12-18T09:11:25;-4.80;99.90
28484;DHT22;15704;48.834;8.736;2022-12-18T09:13:54;-4.70;99.90
28484;DHT22;15704;48.834;8.736;2022-12-18T09:16:22;-4.70;99.90
28484;DHT22;15704;48.834;8.736;2022-12-18T09:18:57;-4.60;99.90
28484;DHT22;15704;48.834;8.736;2022-12-18T09:21:30;-4.60;99.90
28484;DHT22;15704;48.834;8.736;2022-12-18T09:24:01;-4.50;99.90
28484;DHT22;15704;48.834;8.736;2022-12-18T09:26:28;-4.40;99.90
28484;DHT22;15704;48.834;8.736;2022-12-18T09:28:55;-4.40;99.90
28484;DHT22;15704;48.834;8.736;2022-12-18T09:31:23;-4.40;99.90
28484;DHT22;15704;48.834;8.736;2022-12-18T09:33:51;-4.20;99.90
28484;DHT22;15704;48.834;8.736;2022-12-18T09:36:18;-4.20;99.90
28484;DHT22;15704;48.834;8.736;2022-12-18T09:38:45;-4.20;99.90
28484;DHT22;15704;48.834;8.736;2022-12-18T09:44:01;-4.10;99.90
28484;DHT22;15704;48.834;8.736;2022-12-18T09:46:34;-4.00;99.90
28484;DHT22;15704;48.834;8.736;2022-12-18T09:49:05;-3.90;99.90
28484;DHT22;15704;48.834;8.736;2022-12-18T09:54:35;-3.80;99.90
28484;DHT22;15704;48.834;8.736;2022-12-18T09:57:03;-3.70;99.90
28484;DHT22;15704;48.834;8.736;2022-12-18T09:59:38;-3.50;99.90
28484;DHT22;15704;48.834;8.736;2022-12-18T10:02:21;-3.40;99.90
28484;DHT22;15704;48.834;8.736;2022-12-18T10:05:00;-3.30;99.90
28484;DHT22;15704;48.834;8.736;2022-12-18T10:07:37;-3.20;99.90
28484;DHT22;15704;48.834;8.736;2022-12-18T10:27:23;-2.70;99.90
28484;DHT22;15704;48.834;8.736;2022-12-18T10:29:50;-2.60;99.90
28484;DHT22;15704;48.834;8.736;2022-12-18T10:32:26;-2.60;99.90
28484;DHT22;15704;48.834;8.736;2022-12-18T10:34:55;-2.60;99.90
28484;DHT22;15704;48.834;8.736;2022-12-18T10:37:28;-2.50;99.90
28484;DHT22;15704;48.834;8.736;2022-12-18T10:40:09;-2.40;99.90
28484;DHT22;15704;48.834;8.736;2022-12-18T10:42:36;-2.30;99.90
28484;DHT22;15704;48.834;8.736;2022-12-18T10:45:13;-2.30;99.90
28484;DHT22;15704;48.834;8.736;2022-12-18T10:47:44;-2.20;99.90
28484;DHT22;15704;48.834;8.736;2022-12-18T10:50:38;-2.00;99.90
28484;DHT22;15704;48.834;8.736;2022-12-18T10:53:27;-2.10;99.90
28484;DHT22;15704;48.834;8.736;2022-12-18T10:56:00;-2.00;99.90
28484;DHT22;15704;48.834;8.736;2022-12-18T11:01:05;-1.70;99.90
28484;DHT22;15704;48.834;8.736;2022-12-18T11:03:41;-1.70;99.90
28484;DHT22;15704;48.834;8.736;2022-12-18T11:06:14;-1.60;99.90
28484;DHT22;15704;48.834;8.736;2022-12-18T11:08:43;-1.60;99.90
28484;DHT22;15704;48.834;8.736;2022-12-18T11:11:21;-1.70;99.90
28484;DHT22;15704;48.834;8.736;2022-12-18T11:16:21;-1.50;99.90
28484;DHT22;15704;48.834;8.736;2022-12-18T11:18:48;-1.50;99.90
28484;DHT22;15704;48.834;8.736;2022-12-18T11:21:16;-1.50;99.90
28484;DHT22;15704;48.834;8.736;2022-12-18T11:23:53;-1.40;99.90
28484;DHT22;15704;48.834;8.736;2022-12-18T11:26:20;-1.60;99.90
28484;DHT22;15704;48.834;8.736;2022-12-18T11:28:52;-1.40;99.90
28484;DHT22;15704;48.834;8.736;2022-12-18T11:31:33;-1.40;99.90
28484;DHT22;15704;48.834;8.736;2022-12-18T11:36:52;-1.30;99.90
28484;DHT22;15704;48.834;8.736;2022-12-18T11:39:35;-1.30;99.90
28484;DHT22;15704;48.834;8.736;2022-12-18T11:42:15;-1.30;99.90
28484;DHT22;15704;48.834;8.736;2022-12-18T11:44:53;-1.20;99.90
28484;DHT22;15704;48.834;8.736;2022-12-18T11:50:18;-1.30;99.90
28484;DHT22;15704;48.834;8.736;2022-12-18T11:52:45;-1.10;99.90
28484;DHT22;15704;48.834;8.736;2022-12-18T11:55:39;-1.00;99.90
28484;DHT22;15704;48.834;8.736;2022-12-18T11:58:14;-1.20;99.90
28484;DHT22;15704;48.834;8.736;2022-12-18T12:03:43;-1.00;99.90
28484;DHT22;15704;48.834;8.736;2022-12-18T12:06:39;-1.00;99.90
28484;DHT22;15704;48.834;8.736;2022-12-18T12:09:58;-0.90;99.90
28484;DHT22;15704;48.834;8.736;2022-12-18T12:18:05;-1.00;99.90
28484;DHT22;15704;48.834;8.736;2022-12-18T12:20:49;-0.90;99.90
28484;DHT22;15704;48.834;8.736;2022-12-18T12:26:10;-1.00;99.90
28484;DHT22;15704;48.834;8.736;2022-12-18T12:28:46;-0.80;99.90
28484;DHT22;15704;48.834;8.736;2022-12-18T12:34:19;-0.50;99.90
28484;DHT22;15704;48.834;8.736;2022-12-18T12:39:44;-0.40;99.90
28484;DHT22;15704;48.834;8.736;2022-12-18T12:42:29;-0.50;99.90
28484;DHT22;15704;48.834;8.736;2022-12-18T12:45:22;-0.50;99.90
28484;DHT22;15704;48.834;8.736;2022-12-18T12:47:51;-0.60;99.90
28484;DHT22;15704;48.834;8.736;2022-12-18T12:50:19;-0.50;99.90
28484;DHT22;15704;48.834;8.736;2022-12-18T12:52:53;-0.50;99.90
28484;DHT22;15704;48.834;8.736;2022-12-18T12:55:26;-0.40;99.90
28484;DHT22;15704;48.834;8.736;2022-12-18T13:00:46;-0.40;99.90
28484;DHT22;15704;48.834;8.736;2022-12-18T13:06:08;-0.30;99.90
28484;DHT22;15704;48.834;8.736;2022-12-18T13:08:56;-0.20;99.90
28484;DHT22;15704;48.834;8.736;2022-12-18T13:11:34;-0.10;99.90
28484;DHT22;15704;48.834;8.736;2022-12-18T13:14:47;-0.10;99.90
28484;DHT22;15704;48.834;8.736;2022-12-18T13:19:50;-0.10;99.90
28484;DHT22;15704;48.834;8.736;2022-12-18T13:22:28;-0.20;99.90
28484;DHT22;15704;48.834;8.736;2022-12-18T13:24:56;-0.20;99.90
28484;DHT22;15704;48.834;8.736;2022-12-18T13:35:41;-0.40;99.90
28484;DHT22;15704;48.834;8.736;2022-12-18T13:38:33;-0.40;99.90
28484;DHT22;15704;48.834;8.736;2022-12-18T13:48:52;-0.50;99.90
28484;DHT22;15704;48.834;8.736;2022-12-18T13:51:21;-0.50;99.90
28484;DHT22;15704;48.834;8.736;2022-12-18T13:56:20;-0.80;99.90
28484;DHT22;15704;48.834;8.736;2022-12-18T14:01:46;-0.90;99.90
28484;DHT22;15704;48.834;8.736;2022-12-18T14:04:34;-1.00;99.90
28484;DHT22;15704;48.834;8.736;2022-12-18T14:09:51;-1.10;99.90
28484;DHT22;15704;48.834;8.736;2022-12-18T14:12:31;-1.10;99.90
28484;DHT22;15704;48.834;8.736;2022-12-18T14:17:57;-1.10;99.90
28484;DHT22;15704;48.834;8.736;2022-12-18T14:20:26;-1.10;99.90
28484;DHT22;15704;48.834;8.736;2022-12-18T14:22:56;-1.20;99.90
28484;DHT22;15704;48.834;8.736;2022-12-18T14:25:28;-1.30;99.90
28484;DHT22;15704;48.834;8.736;2022-12-18T14:30:39;-1.40;99.90
28484;DHT22;15704;48.834;8.736;2022-12-18T14:33:10;-1.40;99.90
28484;DHT22;15704;48.834;8.736;2022-12-18T14:35:40;-1.50;99.90
28484;DHT22;15704;48.834;8.736;2022-12-18T14:40:43;-1.50;99.90
28484;DHT22;15704;48.834;8.736;2022-12-18T14:43:10;-1.70;99.90
28484;DHT22;15704;48.834;8.736;2022-12-18T14:45:41;-1.70;99.90
28484;DHT22;15704;48.834;8.736;2022-12-18T14:48:52;-1.80;99.90
28484;DHT22;15704;48.834;8.736;2022-12-18T14:51:25;-1.80;99.90
28484;DHT22;15704;48.834;8.736;2022-12-18T14:53:56;-1.90;99.90
28484;DHT22;15704;48.834;8.736;2022-12-18T14:56:33;-2.00;99.90
28484;DHT22;15704;48.834;8.736;2022-12-18T14:59:03;-2.00;99.90
28484;DHT22;15704;48.834;8.736;2022-12-18T15:01:37;-2.10;99.90
28484;DHT22;15704;48.834;8.736;2022-12-18T15:04:18;-2.10;99.90
28484;DHT22;15704;48.834;8.736;2022-12-18T15:07:03;-2.10;99.90
28484;DHT22;15704;48.834;8.736;2022-12-18T15:09:30;-2.20;99.90
28484;DHT22;15704;48.834;8.736;2022-12-18T15:11:59;-2.30;99.90
28484;DHT22;15704;48.834;8.736;2022-12-18T15:14:32;-2.30;99.90
28484;DHT22;15704;48.834;8.736;2022-12-18T15:17:19;-2.30;99.90
28484;DHT22;15704;48.834;8.736;2022-12-18T15:19:50;-2.30;99.90
28484;DHT22;15704;48.834;8.736;2022-12-18T15:22:28;-2.40;99.90
28484;DHT22;15704;48.834;8.736;2022-12-18T15:24:56;-2.50;99.90
28484;DHT22;15704;48.834;8.736;2022-12-18T15:27:33;-2.50;99.90
28484;DHT22;15704;48.834;8.736;2022-12-18T15:32:38;-2.70;99.90
28484;DHT22;15704;48.834;8.736;2022-12-18T15:37:40;-2.90;99.90
28484;DHT22;15704;48.834;8.736;2022-12-18T15:40:12;-2.90;99.90
28484;DHT22;15704;48.834;8.736;2022-12-18T15:42:39;-2.90;99.90
28484;DHT22;15704;48.834;8.736;2022-12-18T15:45:35;-2.90;99.90
28484;DHT22;15704;48.834;8.736;2022-12-18T15:48:02;-2.90;99.90
28484;DHT22;15704;48.834;8.736;2022-12-18T15:50:28;-2.90;99.90
28484;DHT22;15704;48.834;8.736;2022-12-18T15:52:56;-3.00;99.90
28484;DHT22;15704;48.834;8.736;2022-12-18T15:55:24;-3.00;99.90
28484;DHT22;15704;48.834;8.736;2022-12-18T15:58:10;-3.00;99.90
28484;DHT22;15704;48.834;8.736;2022-12-18T16:00:39;-3.00;99.90
28484;DHT22;15704;48.834;8.736;2022-12-18T16:03:06;-3.00;99.90
28484;DHT22;15704;48.834;8.736;2022-12-18T16:05:33;-3.00;99.90
28484;DHT22;15704;48.834;8.736;2022-12-18T16:08:00;-3.00;99.90
28484;DHT22;15704;48.834;8.736;2022-12-18T16:10:27;-2.90;99.90
28484;DHT22;15704;48.834;8.736;2022-12-18T16:12:54;-2.90;99.90
28484;DHT22;15704;48.834;8.736;2022-12-18T16:15:21;-2.80;99.90
28484;DHT22;15704;48.834;8.736;2022-12-18T16:17:50;-2.70;99.90
28484;DHT22;15704;48.834;8.736;2022-12-18T16:20:21;-2.70;99.90
28484;DHT22;15704;48.834;8.736;2022-12-18T16:22:48;-2.60;99.90
28484;DHT22;15704;48.834;8.736;2022-12-18T16:25:42;-2.50;99.90
28484;DHT22;15704;48.834;8.736;2022-12-18T16:28:08;-2.40;99.90
28484;DHT22;15704;48.834;8.736;2022-12-18T16:30:35;-2.40;99.90
28484;DHT22;15704;48.834;8.736;2022-12-18T16:33:04;-2.30;99.90
28484;DHT22;15704;48.834;8.736;2022-12-18T16:35:33;-2.20;99.90
28484;DHT22;15704;48.834;8.736;2022-12-18T16:38:00;-2.30;99.90
28484;DHT22;15704;48.834;8.736;2022-12-18T16:40:26;-2.20;99.90
28484;DHT22;15704;48.834;8.736;2022-12-18T16:42:53;-2.10;99.90
28484;DHT22;15704;48.834;8.736;2022-12-18T16:45:20;-2.10;99.90
28484;DHT22;15704;48.834;8.736;2022-12-18T16:47:46;-2.00;99.90
28484;DHT22;15704;48.834;8.736;2022-12-18T16:50:13;-2.00;99.90
28484;DHT22;15704;48.834;8.736;2022-12-18T16:52:40;-2.00;99.90
28484;DHT22;15704;48.834;8.736;2022-12-18T16:55:08;-1.90;99.90
28484;DHT22;15704;48.834;8.736;2022-12-18T16:57:35;-1.90;99.90
28484;DHT22;15704;48.834;8.736;2022-12-18T17:00:03;-1.80;99.90
28484;DHT22;15704;48.834;8.736;2022-12-18T17:02:31;-1.80;99.90
28484;DHT22;15704;48.834;8.736;2022-12-18T17:04:59;-1.80;99.90
28484;DHT22;15704;48.834;8.736;2022-12-18T17:07:26;-1.80;99.90
28484;DHT22;15704;48.834;8.736;2022-12-18T17:09:54;-1.80;99.90
28484;DHT22;15704;48.834;8.736;2022-12-18T17:12:21;-1.70;99.90
28484;DHT22;15704;48.834;8.736;2022-12-18T17:14:48;-1.70;99.90
28484;DHT22;15704;48.834;8.736;2022-12-18T17:17:15;-1.70;99.90
28484;DHT22;15704;48.834;8.736;2022-12-18T17:19:47;-1.70;99.90
28484;DHT22;15704;48.834;8.736;2022-12-18T17:22:14;-1.70;99.90
28484;DHT22;15704;48.834;8.736;2022-12-18T17:24:41;-1.60;99.90
28484;DHT22;15704;48.834;8.736;2022-12-18T17:27:07;-1.60;99.90
28484;DHT22;15704;48.834;8.736;2022-12-18T17:29:34;-1.70;99.90
28484;DHT22;15704;48.834;8.736;2022-12-18T17:32:01;-1.70;99.90
28484;DHT22;15704;48.834;8.736;2022-12-18T17:37:07;-1.70;99.90
28484;DHT22;15704;48.834;8.736;2022-12-18T17:39:34;-1.80;99.90
28484;DHT22;15704;48.834;8.736;2022-12-18T17:42:01;-1.80;99.90
28484;DHT22;15704;48.834;8.736;2022-12-18T17:44:28;-1.80;99.90
28484;DHT22;15704;48.834;8.736;2022-12-18T17:46:54;-1.90;99.90
28484;DHT22;15704;48.834;8.736;2022-12-18T17:49:21;-1.90;99.90
28484;DHT22;15704;48.834;8.736;2022-12-18T17:51:48;-1.90;99.90
28484;DHT22;15704;48.834;8.736;2022-12-18T17:54:15;-1.80;99.90
28484;DHT22;15704;48.834;8.736;2022-12-18T17:56:41;-1.70;99.90